Time;durP1;ratioP1;P1;durP2;ratioP2;P2;SDS_P1;SDS_P2;PMS_P1;PMS_P2;Temp;Humidity;BMP_temperature;BMP_pressure;BME280_temperature;BME280_humidity;BME280_pressure;Samples;Min_cycle;Max_cycle;Signal;HPM_P1;HPM_P2
2022/02/23 00:00:17;;;;;;;8.43;1.83;;;;;;;;;;5017934;28;20100;-67
2022/02/23 00:02:43;;;;;;;9.30;2.25;;;;;;;;;;5035299;28;20041;-69
2022/02/23 00:05:09;;;;;;;7.07;2.35;;;;;;;;;;5035645;28;20082;-66
2022/02/23 00:07:35;;;;;;;10.38;2.60;;;;;;;;;;5017702;28;20040;-69
2022/02/23 00:10:02;;;;;;;8.30;1.88;;;;;;;;;;5035494;28;20029;-68
2022/02/23 00:12:28;;;;;;;9.23;1.95;;;;;;;;;;5035240;28;20022;-68
2022/02/23 00:14:57;;;;;;;8.43;1.92;;;;;;;;;;5035301;28;20425;-69
2022/02/23 00:17:25;;;;;;;10.45;2.22;;;;;;;;;;5035193;28;20021;-69
2022/02/23 00:19:51;;;;;;;9.73;2.45;;;;;;;;;;5033898;28;20499;-69
2022/02/23 00:22:17;;;;;;;11.85;2.20;;;;;;;;;;5034661;28;20045;-67
2022/02/23 00:24:43;;;;;;;8.35;2.00;;;;;;;;;;5035219;28;20084;-70
2022/02/23 00:27:08;;;;;;;10.80;2.45;;;;;;;;;;5034829;28;20036;-69
2022/02/23 00:29:35;;;;;;;7.97;2.10;;;;;;;;;;5035156;28;20111;-69
2022/02/23 00:32:01;;;;;;;32.05;2.85;;;;;;;;;;5034589;28;20056;-69
2022/02/23 00:34:27;;;;;;;19.40;2.30;;;;;;;;;;5051095;28;20029;-69
2022/02/23 00:36:54;;;;;;;16.80;2.20;;;;;;;;;;5046458;28;20024;-66
2022/02/23 00:39:20;;;;;;;22.25;2.60;;;;;;;;;;5024396;28;20025;-67
2022/02/23 00:41:46;;;;;;;10.02;2.58;;;;;;;;;;5039184;28;20064;-64
2022/02/23 00:44:13;;;;;;;15.75;2.53;;;;;;;;;;5042657;28;20060;-65
2022/02/23 00:46:40;;;;;;;8.85;1.88;;;;;;;;;;5042421;28;20494;-65
2022/02/23 00:49:06;;;;;;;14.73;2.35;;;;;;;;;;5044803;28;20029;-65
2022/02/23 00:51:32;;;;;;;9.38;2.55;;;;;;;;;;5021502;28;20707;-66
2022/02/23 00:53:58;;;;;;;8.93;2.28;;;;;;;;;;5041436;28;20385;-66
2022/02/23 00:56:24;;;;;;;11.80;2.55;;;;;;;;;;5043229;28;20033;-64
2022/02/23 00:58:50;;;;;;;16.20;2.95;;;;;;;;;;5045907;28;20053;-65
2022/02/23 01:01:16;;;;;;;14.98;2.53;;;;;;;;;;5039687;28;20044;-64
2022/02/23 01:03:42;;;;;;;12.05;2.35;;;;;;;;;;5024368;28;20112;-65
2022/02/23 01:06:08;;;;;;;9.32;2.47;;;;;;;;;;5043454;28;20026;-66
2022/02/23 01:08:35;;;;;;;11.73;2.80;;;;;;;;;;5039477;28;20388;-66
2022/02/23 01:11:01;;;;;;;14.00;2.47;;;;;;;;;;5034008;28;20749;-66
2022/02/23 01:13:27;;;;;;;10.38;2.28;;;;;;;;;;5034151;28;20041;-66
2022/02/23 01:15:53;;;;;;;11.73;2.63;;;;;;;;;;5034213;28;20048;-67
2022/02/23 01:18:19;;;;;;;8.93;2.20;;;;;;;;;;5033233;28;20018;-70
2022/02/23 01:20:45;;;;;;;14.23;2.65;;;;;;;;;;5033870;28;20022;-66
2022/02/23 01:23:11;;;;;;;9.90;2.67;;;;;;;;;;5015903;28;20037;-67
2022/02/23 01:25:37;;;;;;;8.75;2.28;;;;;;;;;;5033213;28;20053;-68
2022/02/23 01:28:04;;;;;;;9.55;2.13;;;;;;;;;;5033320;28;20029;-67
2022/02/23 01:30:30;;;;;;;12.88;2.72;;;;;;;;;;5033920;28;20104;-70
2022/02/23 01:32:56;;;;;;;9.63;2.30;;;;;;;;;;5019065;28;20407;-67
2022/02/23 01:35:23;;;;;;;9.13;2.40;;;;;;;;;;5039266;28;20088;-67
2022/02/23 01:37:49;;;;;;;9.27;2.17;;;;;;;;;;5033588;28;20464;-66
2022/02/23 01:40:15;;;;;;;11.18;2.45;;;;;;;;;;5033558;28;20025;-67
2022/02/23 01:42:42;;;;;;;10.93;2.25;;;;;;;;;;5033194;28;20105;-67
2022/02/23 01:45:08;;;;;;;7.88;2.00;;;;;;;;;;5033640;28;20033;-67
2022/02/23 01:47:34;;;;;;;13.45;2.30;;;;;;;;;;5033431;28;20031;-67
2022/02/23 01:50:00;;;;;;;11.98;2.63;;;;;;;;;;5015545;28;20030;-67
2022/02/23 01:52:26;;;;;;;10.10;2.58;;;;;;;;;;5033175;28;20025;-67
2022/02/23 01:54:53;;;;;;;8.82;2.38;;;;;;;;;;5033448;28;20033;-67
2022/02/23 01:57:19;;;;;;;8.57;2.00;;;;;;;;;;5033460;28;20097;-68
2022/02/23 01:59:45;;;;;;;14.38;2.67;;;;;;;;;;5033184;28;20156;-67
2022/02/23 02:02:12;;;;;;;8.70;2.25;;;;;;;;;;5032947;28;20083;-67
2022/02/23 02:04:38;;;;;;;12.20;2.33;;;;;;;;;;5033281;28;20053;-68
2022/02/23 02:07:04;;;;;;;6.68;1.98;;;;;;;;;;5031844;28;20464;-67
2022/02/23 02:09:30;;;;;;;10.98;2.90;;;;;;;;;;5015175;28;20025;-67
2022/02/23 02:11:56;;;;;;;9.93;2.15;;;;;;;;;;5032696;28;20025;-66
2022/02/23 02:14:22;;;;;;;12.90;2.13;;;;;;;;;;5032623;28;20113;-66
2022/02/23 02:16:48;;;;;;;9.43;2.53;;;;;;;;;;5033121;28;20028;-66
2022/02/23 02:19:14;;;;;;;8.75;2.25;;;;;;;;;;5033031;28;20025;-67
2022/02/23 02:21:54;;;;;;;12.32;2.30;;;;;;;;;;5029894;28;20460;-69
2022/02/23 02:24:23;;;;;;;11.27;2.75;;;;;;;;;;5032702;28;20056;-69
2022/02/23 02:26:50;;;;;;;13.77;2.67;;;;;;;;;;5032471;28;20034;-66
2022/02/23 02:29:16;;;;;;;9.70;2.65;;;;;;;;;;5032792;28;20364;-67
2022/02/23 02:31:42;;;;;;;5.80;2.10;;;;;;;;;;5032488;28;20053;-69
2022/02/23 02:34:08;;;;;;;12.50;2.58;;;;;;;;;;5046026;28;20028;-66
2022/02/23 02:36:34;;;;;;;10.07;2.10;;;;;;;;;;5052323;28;20021;-67
2022/02/23 02:39:00;;;;;;;10.57;2.67;;;;;;;;;;5037995;28;20721;-67
2022/02/23 02:41:26;;;;;;;11.73;2.45;;;;;;;;;;5031556;28;20032;-69
2022/02/23 02:43:52;;;;;;;12.60;2.22;;;;;;;;;;5031818;28;20465;-68
2022/02/23 02:46:18;;;;;;;14.48;2.83;;;;;;;;;;5032052;28;20136;-67
2022/02/23 02:48:44;;;;;;;7.63;2.10;;;;;;;;;;5014560;28;20075;-67
2022/02/23 02:51:09;;;;;;;7.93;2.38;;;;;;;;;;5032192;28;20017;-68
2022/02/23 02:53:35;;;;;;;11.32;2.08;;;;;;;;;;5013770;28;20034;-68
2022/02/23 02:56:01;;;;;;;7.78;2.28;;;;;;;;;;5032179;28;20479;-68
2022/02/23 02:58:29;;;;;;;8.35;2.17;;;;;;;;;;5014535;28;20410;-69
2022/02/23 03:00:55;;;;;;;11.93;2.60;;;;;;;;;;5014255;28;20036;-67
2022/02/23 03:03:21;;;;;;;11.07;2.30;;;;;;;;;;5032055;28;20037;-66
2022/02/23 03:05:48;;;;;;;9.50;2.38;;;;;;;;;;5032053;28;20453;-67
2022/02/23 03:08:14;;;;;;;9.50;2.50;;;;;;;;;;5032017;28;20075;-66
2022/02/23 03:10:40;;;;;;;8.38;1.90;;;;;;;;;;5032112;28;20025;-66
2022/02/23 03:13:06;;;;;;;11.32;2.63;;;;;;;;;;5031826;28;20033;-66
2022/02/23 03:15:33;;;;;;;9.40;2.70;;;;;;;;;;5032293;28;20048;-67
2022/02/23 03:17:59;;;;;;;8.93;2.05;;;;;;;;;;5031947;28;20022;-66
2022/02/23 03:20:25;;;;;;;11.63;2.08;;;;;;;;;;5031908;28;20032;-66
2022/02/23 03:22:51;;;;;;;12.13;2.55;;;;;;;;;;5031632;28;20038;-66
2022/02/23 03:25:17;;;;;;;7.80;1.90;;;;;;;;;;5013132;28;20519;-68
2022/02/23 03:27:43;;;;;;;7.47;1.88;;;;;;;;;;5027414;28;20034;-66
2022/02/23 03:30:09;;;;;;;7.32;2.00;;;;;;;;;;5031727;28;20726;-69
2022/02/23 03:32:35;;;;;;;7.60;2.20;;;;;;;;;;5031710;28;20088;-69
2022/02/23 03:35:01;;;;;;;8.18;2.35;;;;;;;;;;5031946;28;20401;-67
2022/02/23 03:37:27;;;;;;;7.35;2.08;;;;;;;;;;5031877;28;20026;-66
2022/02/23 03:39:53;;;;;;;10.05;2.33;;;;;;;;;;5013843;28;20742;-66
2022/02/23 03:42:19;;;;;;;7.30;2.00;;;;;;;;;;5013471;28;20026;-66
2022/02/23 03:44:45;;;;;;;6.38;1.70;;;;;;;;;;5030733;28;20090;-67
2022/02/23 03:47:11;;;;;;;13.30;2.75;;;;;;;;;;5031444;28;20437;-65
2022/02/23 03:49:37;;;;;;;6.93;2.05;;;;;;;;;;5031676;28;20036;-67
2022/02/23 03:52:03;;;;;;;8.77;2.28;;;;;;;;;;5031295;28;20022;-67
2022/02/23 03:54:29;;;;;;;7.82;2.53;;;;;;;;;;5031524;28;20028;-67
2022/02/23 03:56:55;;;;;;;7.38;2.17;;;;;;;;;;5013809;28;20021;-68
2022/02/23 03:59:21;;;;;;;10.55;2.08;;;;;;;;;;5031605;28;20079;-67
2022/02/23 04:01:47;;;;;;;11.18;2.08;;;;;;;;;;5031167;28;20029;-66
2022/02/23 04:04:14;;;;;;;5.82;1.90;;;;;;;;;;5031398;28;20037;-68
2022/02/23 04:06:40;;;;;;;5.63;1.77;;;;;;;;;;5031543;28;20022;-67
2022/02/23 04:09:10;;;;;;;7.28;2.10;;;;;;;;;;5031378;28;20030;-67
2022/02/23 04:11:36;;;;;;;6.05;2.05;;;;;;;;;;5031060;28;20032;-68
2022/02/23 04:14:03;;;;;;;7.35;2.08;;;;;;;;;;5031020;28;20026;-67
2022/02/23 04:16:29;;;;;;;6.32;2.08;;;;;;;;;;5031308;28;20061;-67
2022/02/23 04:18:55;;;;;;;10.48;2.13;;;;;;;;;;5030417;28;20029;-66
2022/02/23 04:21:21;;;;;;;7.80;1.98;;;;;;;;;;5030994;28;20037;-70
2022/02/23 04:23:48;;;;;;;7.10;2.22;;;;;;;;;;5030963;28;20068;-66
2022/02/23 04:26:16;;;;;;;8.07;2.10;;;;;;;;;;5030846;28;20104;-66
2022/02/23 04:28:42;;;;;;;8.93;2.28;;;;;;;;;;5031066;28;20030;-67
2022/02/23 04:31:08;;;;;;;7.82;1.90;;;;;;;;;;5030983;28;20026;-67
2022/02/23 04:33:35;;;;;;;8.25;2.08;;;;;;;;;;5030136;28;20493;-67
2022/02/23 04:36:02;;;;;;;7.43;2.47;;;;;;;;;;5034991;28;20455;-71
2022/02/23 04:38:28;;;;;;;10.00;2.33;;;;;;;;;;5035432;28;20038;-70
2022/02/23 04:40:54;;;;;;;11.82;2.65;;;;;;;;;;5034927;28;20026;-70
2022/02/23 04:43:20;;;;;;;12.63;2.60;;;;;;;;;;5034673;28;20057;-70
2022/02/23 04:45:46;;;;;;;8.88;2.55;;;;;;;;;;5034839;28;20072;-70
2022/02/23 04:48:13;;;;;;;15.75;2.83;;;;;;;;;;5034951;28;20034;-70
2022/02/23 04:50:39;;;;;;;9.02;2.13;;;;;;;;;;5034399;28;20473;-71
2022/02/23 04:53:05;;;;;;;17.75;2.50;;;;;;;;;;5034757;28;20037;-68
2022/02/23 04:55:31;;;;;;;9.45;2.47;;;;;;;;;;5034946;28;20465;-72
2022/02/23 04:57:57;;;;;;;9.32;2.13;;;;;;;;;;5034920;28;20037;-70
2022/02/23 05:00:23;;;;;;;6.95;1.90;;;;;;;;;;5017092;28;20041;-71
2022/02/23 05:02:49;;;;;;;9.38;2.30;;;;;;;;;;5023191;28;20036;-71
2022/02/23 05:05:15;;;;;;;9.32;2.25;;;;;;;;;;5044208;28;20030;-72
2022/02/23 05:07:41;;;;;;;9.57;1.98;;;;;;;;;;5038906;28;20033;-72
2022/02/23 05:10:08;;;;;;;9.55;1.92;;;;;;;;;;5045105;28;20519;-70
2022/02/23 05:12:34;;;;;;;9.70;2.17;;;;;;;;;;5043507;28;20101;-73
2022/02/23 05:15:00;;;;;;;8.25;2.28;;;;;;;;;;5046651;28;20120;-70
2022/02/23 05:17:26;;;;;;;9.07;2.17;;;;;;;;;;5041773;28;20472;-70
2022/02/23 05:19:52;;;;;;;11.27;2.28;;;;;;;;;;5046780;28;20030;-69
2022/02/23 05:22:18;;;;;;;7.43;1.95;;;;;;;;;;5030951;28;20030;-71
2022/02/23 05:24:44;;;;;;;13.88;2.63;;;;;;;;;;5036452;28;20041;-72
2022/02/23 05:27:10;;;;;;;10.23;2.15;;;;;;;;;;5048438;28;20064;-70
2022/02/23 05:29:36;;;;;;;12.35;2.58;;;;;;;;;;5038498;28;20086;-71
2022/02/23 05:32:02;;;;;;;8.05;2.10;;;;;;;;;;5044384;28;20053;-68
2022/02/23 05:34:28;;;;;;;8.30;1.92;;;;;;;;;;5042087;28;20099;-70
2022/02/23 05:36:54;;;;;;;8.52;1.95;;;;;;;;;;5035789;28;20017;-71
2022/02/23 05:39:21;;;;;;;10.60;2.05;;;;;;;;;;5053728;28;20025;-69
2022/02/23 05:41:47;;;;;;;14.40;2.17;;;;;;;;;;5053576;28;20483;-71
2022/02/23 05:44:13;;;;;;;12.50;2.30;;;;;;;;;;5053465;28;20037;-69
2022/02/23 05:46:39;;;;;;;12.13;2.13;;;;;;;;;;5053489;28;20456;-69
2022/02/23 05:49:05;;;;;;;14.10;2.28;;;;;;;;;;5035095;28;20029;-71
2022/02/23 05:51:35;;;;;;;7.97;2.00;;;;;;;;;;5044651;28;20396;-71
2022/02/23 05:54:02;;;;;;;7.07;2.17;;;;;;;;;;5033137;28;20388;-70
2022/02/23 05:56:28;;;;;;;8.68;2.75;;;;;;;;;;5033616;28;20369;-71
2022/02/23 05:58:54;;;;;;;8.88;2.33;;;;;;;;;;5033522;28;20040;-70
2022/02/23 06:01:20;;;;;;;8.85;2.35;;;;;;;;;;5033183;28;20095;-70
2022/02/23 06:03:46;;;;;;;5.78;2.10;;;;;;;;;;5033330;28;20412;-70
2022/02/23 06:06:12;;;;;;;9.98;2.35;;;;;;;;;;5033203;28;20065;-69
2022/02/23 06:08:39;;;;;;;13.18;2.53;;;;;;;;;;5015408;28;20396;-70
2022/02/23 06:11:05;;;;;;;8.15;1.98;;;;;;;;;;5015274;28;20045;-70
2022/02/23 06:13:31;;;;;;;6.90;2.30;;;;;;;;;;5033170;28;20018;-70
2022/02/23 06:15:57;;;;;;;8.10;2.03;;;;;;;;;;5039979;28;20033;-69
2022/02/23 06:18:23;;;;;;;8.85;2.17;;;;;;;;;;5026343;28;20025;-68
2022/02/23 06:20:50;;;;;;;10.90;2.33;;;;;;;;;;5041558;28;20030;-68
2022/02/23 06:23:16;;;;;;;10.63;2.33;;;;;;;;;;5042540;28;20060;-69
2022/02/23 06:25:42;;;;;;;9.80;2.10;;;;;;;;;;5036726;28;20052;-69
2022/02/23 06:28:08;;;;;;;7.38;1.90;;;;;;;;;;5042802;28;20025;-70
2022/02/23 06:30:34;;;;;;;8.20;2.00;;;;;;;;;;5043263;28;20460;-67
2022/02/23 06:33:00;;;;;;;9.00;2.05;;;;;;;;;;5023913;28;20049;-66
2022/02/23 06:35:28;;;;;;;6.65;2.13;;;;;;;;;;5035915;28;20041;-71
2022/02/23 06:37:55;;;;;;;8.90;2.13;;;;;;;;;;5031936;28;20029;-68
2022/02/23 06:40:21;;;;;;;12.43;2.13;;;;;;;;;;5030893;28;20229;-70
2022/02/23 06:42:47;;;;;;;12.02;2.55;;;;;;;;;;5034321;28;20539;-67
2022/02/23 06:45:13;;;;;;;40.33;2.83;;;;;;;;;;5015004;28;20029;-67
2022/02/23 06:47:39;;;;;;;40.22;3.60;;;;;;;;;;5032773;28;20053;-66
2022/02/23 06:50:05;;;;;;;35.00;2.67;;;;;;;;;;5032641;28;20060;-64
2022/02/23 06:52:32;;;;;;;29.02;2.90;;;;;;;;;;5032015;28;20104;-69
2022/02/23 06:54:58;;;;;;;48.78;2.92;;;;;;;;;;5014689;28;20057;-65
2022/02/23 06:57:24;;;;;;;30.80;2.78;;;;;;;;;;5014148;28;20029;-63
2022/02/23 06:59:52;;;;;;;37.80;2.95;;;;;;;;;;5031492;28;20113;-68
2022/02/23 07:02:18;;;;;;;25.75;2.42;;;;;;;;;;5032004;28;20049;-69
2022/02/23 07:04:44;;;;;;;23.00;2.45;;;;;;;;;;5014263;28;20033;-69
2022/02/23 07:07:10;;;;;;;17.15;2.60;;;;;;;;;;5031946;28;20093;-69
2022/02/23 07:09:36;;;;;;;26.08;2.67;;;;;;;;;;5032027;28;20052;-68
2022/02/23 07:12:03;;;;;;;28.92;2.92;;;;;;;;;;5031838;28;20480;-68
2022/02/23 07:14:29;;;;;;;20.35;3.08;;;;;;;;;;5014737;28;20029;-69
2022/02/23 07:16:55;;;;;;;16.70;2.55;;;;;;;;;;5014397;28;20404;-69
2022/02/23 07:19:21;;;;;;;15.55;3.28;;;;;;;;;;5032180;28;20083;-70
2022/02/23 07:21:47;;;;;;;22.25;2.88;;;;;;;;;;5031703;28;20047;-69
2022/02/23 07:24:14;;;;;;;14.25;2.50;;;;;;;;;;5031465;28;20049;-71
2022/02/23 07:26:40;;;;;;;15.90;3.00;;;;;;;;;;5031846;28;20033;-69
2022/02/23 07:29:06;;;;;;;12.25;3.30;;;;;;;;;;5032068;28;20026;-69
2022/02/23 07:31:32;;;;;;;17.65;2.97;;;;;;;;;;5013639;28;20048;-68
2022/02/23 07:33:58;;;;;;;17.83;2.65;;;;;;;;;;5031972;28;20530;-70
2022/02/23 07:36:24;;;;;;;13.98;2.50;;;;;;;;;;5032050;28;20033;-70
2022/02/23 07:38:52;;;;;;;16.73;2.80;;;;;;;;;;5032213;28;20033;-70
2022/02/23 07:41:25;;;;;;;9.57;2.38;;;;;;;;;;5031880;28;20036;-72
2022/02/23 07:43:51;;;;;;;17.60;2.78;;;;;;;;;;5031878;28;20040;-73
2022/02/23 07:46:18;;;;;;;12.35;2.53;;;;;;;;;;5014076;28;20032;-70
2022/02/23 07:48:46;;;;;;;16.85;2.50;;;;;;;;;;5031910;28;20112;-70
2022/02/23 07:51:13;;;;;;;9.48;2.88;;;;;;;;;;5013805;28;20065;-70
2022/02/23 07:53:38;;;;;;;13.80;3.08;;;;;;;;;;5031938;28;20025;-70
2022/02/23 07:56:05;;;;;;;15.18;2.63;;;;;;;;;;5031688;28;20032;-71
2022/02/23 07:58:31;;;;;;;16.27;2.72;;;;;;;;;;5013029;28;20373;-69
2022/02/23 08:00:57;;;;;;;14.82;2.58;;;;;;;;;;5031641;28;20409;-70
2022/02/23 08:03:23;;;;;;;11.70;2.33;;;;;;;;;;5031300;28;20037;-70
2022/02/23 08:05:49;;;;;;;8.63;2.83;;;;;;;;;;5031346;28;20052;-70
2022/02/23 08:08:16;;;;;;;9.18;2.80;;;;;;;;;;5031322;28;20022;-72
2022/02/23 08:10:43;;;;;;;10.45;2.97;;;;;;;;;;5032986;28;20040;-71
2022/02/23 08:13:10;;;;;;;9.95;2.50;;;;;;;;;;5035314;28;20039;-72
2022/02/23 08:21:05;;;;;;;47.00;4.03;;;;;;;;;;5041925;28;20120;-69
2022/02/23 08:23:32;;;;;;;36.35;3.42;;;;;;;;;;5049160;28;20033;-72
2022/02/23 08:25:58;;;;;;;36.00;3.67;;;;;;;;;;5046252;28;20033;-72
2022/02/23 08:28:24;;;;;;;17.08;3.40;;;;;;;;;;5043723;28;20033;-73
2022/02/23 08:30:50;;;;;;;17.88;3.40;;;;;;;;;;5047288;28;20124;-70
2022/02/23 08:33:16;;;;;;;31.30;3.40;;;;;;;;;;5020264;28;20026;-75
2022/02/23 08:35:42;;;;;;;26.42;2.78;;;;;;;;;;5029333;28;20013;-73
2022/02/23 08:38:11;;;;;;;35.55;3.30;;;;;;;;;;5011913;28;20404;-72
2022/02/23 08:40:38;;;;;;;86.70;5.63;;;;;;;;;;5041078;28;20457;-70
2022/02/23 08:43:04;;;;;;;89.93;5.18;;;;;;;;;;5046809;28;20070;-73
2022/02/23 08:45:33;;;;;;;49.72;4.25;;;;;;;;;;5027595;28;20048;-76
2022/02/23 08:48:00;;;;;;;39.17;3.60;;;;;;;;;;5035568;28;20057;-75
2022/02/23 08:50:26;;;;;;;23.90;4.00;;;;;;;;;;5036054;28;20453;-75
2022/02/23 08:52:52;;;;;;;31.50;3.88;;;;;;;;;;5039442;28;20024;-76
2022/02/23 08:55:18;;;;;;;24.00;4.30;;;;;;;;;;5021700;28;20033;-75
2022/02/23 08:57:44;;;;;;;30.05;3.55;;;;;;;;;;5052909;28;20028;-76
2022/02/23 09:00:10;;;;;;;26.80;4.50;;;;;;;;;;5040811;28;20092;-65
2022/02/23 09:02:36;;;;;;;31.67;4.20;;;;;;;;;;5043852;28;20029;-64
2022/02/23 09:05:02;;;;;;;22.10;3.50;;;;;;;;;;5045217;28;20132;-65
2022/02/23 09:07:28;;;;;;;25.17;3.80;;;;;;;;;;5044960;28;20442;-66
2022/02/23 09:09:54;;;;;;;22.58;3.80;;;;;;;;;;5044007;28;20109;-66
2022/02/23 09:12:23;;;;;;;20.77;4.15;;;;;;;;;;5043093;28;20100;-65
2022/02/23 09:14:50;;;;;;;21.13;3.65;;;;;;;;;;5038960;28;20025;-65
2022/02/23 09:17:16;;;;;;;20.52;3.30;;;;;;;;;;5041979;28;20021;-65
2022/02/23 09:19:42;;;;;;;16.13;2.95;;;;;;;;;;5042022;28;20381;-65
2022/02/23 09:22:08;;;;;;;21.52;3.40;;;;;;;;;;5039253;28;20465;-66
2022/02/23 09:24:34;;;;;;;20.83;3.58;;;;;;;;;;5041125;28;20045;-69
2022/02/23 09:27:03;;;;;;;19.98;3.13;;;;;;;;;;5026913;28;20029;-70
2022/02/23 09:29:34;;;;;;;19.67;2.75;;;;;;;;;;5034415;28;20052;-71
2022/02/23 09:32:00;;;;;;;19.52;3.92;;;;;;;;;;5038967;28;20055;-69
2022/02/23 09:34:26;;;;;;;12.68;2.78;;;;;;;;;;5025229;28;20105;-68
2022/02/23 09:36:52;;;;;;;19.10;3.30;;;;;;;;;;5023365;28;20125;-68
2022/02/23 09:39:21;;;;;;;37.80;3.28;;;;;;;;;;5043112;28;20406;-67
2022/02/23 09:41:48;;;;;;;16.23;2.90;;;;;;;;;;5029735;28;20116;-68
2022/02/23 09:44:18;;;;;;;14.05;2.65;;;;;;;;;;5043730;28;20029;-69
2022/02/23 09:46:47;;;;;;;15.60;3.20;;;;;;;;;;5041634;28;20033;-71
2022/02/23 09:49:13;;;;;;;17.10;3.28;;;;;;;;;;5025826;28;20032;-71
2022/02/23 09:51:40;;;;;;;16.10;3.50;;;;;;;;;;5043884;28;20119;-71
2022/02/23 09:54:06;;;;;;;11.48;3.10;;;;;;;;;;5036061;28;20056;-71
2022/02/23 09:56:32;;;;;;;17.35;3.45;;;;;;;;;;5033672;28;20047;-71
2022/02/23 09:58:58;;;;;;;14.77;2.85;;;;;;;;;;5033291;28;20080;-71
2022/02/23 10:01:27;;;;;;;14.07;2.92;;;;;;;;;;5040430;28;20491;-74
2022/02/23 10:03:53;;;;;;;27.85;3.33;;;;;;;;;;5025201;28;20036;-72
2022/02/23 10:06:20;;;;;;;27.92;3.80;;;;;;;;;;5042152;28;20063;-73
2022/02/23 10:19:51;;;;;;;21.67;2.92;;;;;;;;;;5110547;27;20439;-73
2022/02/23 10:22:23;;;;;;;14.93;3.85;;;;;;;;;;5095722;28;20111;-73
2022/02/23 10:24:49;;;;;;;13.68;3.58;;;;;;;;;;5090574;28;20028;-74
2022/02/23 10:27:18;;;;;;;18.92;3.08;;;;;;;;;;5090172;28;20023;-75
2022/02/23 10:29:53;;;;;;;32.58;4.15;;;;;;;;;;5090339;28;20555;-73
2022/02/23 10:32:19;;;;;;;23.63;3.83;;;;;;;;;;5079331;28;20025;-77
2022/02/23 10:35:04;;;;;;;17.35;4.30;;;;;;;;;;5088402;28;20024;-77
2022/02/23 10:37:31;;;;;;;28.25;3.65;;;;;;;;;;5087818;28;20021;-72
2022/02/23 10:39:59;;;;;;;13.00;3.25;;;;;;;;;;5071593;28;20039;-75
2022/02/23 10:42:30;;;;;;;13.57;3.28;;;;;;;;;;5089404;28;20099;-70
2022/02/23 10:44:57;;;;;;;13.48;3.35;;;;;;;;;;5089255;28;20115;-76
2022/02/23 10:47:37;;;;;;;14.68;3.40;;;;;;;;;;5089672;28;20439;-75
2022/02/23 10:50:12;;;;;;;17.08;3.65;;;;;;;;;;5085861;28;20030;-76
2022/02/23 10:52:39;;;;;;;13.20;3.22;;;;;;;;;;5089870;28;20048;-75
2022/02/23 10:55:24;;;;;;;18.83;3.30;;;;;;;;;;5071433;28;20035;-75
2022/02/23 10:57:53;;;;;;;19.50;3.67;;;;;;;;;;5069537;28;20120;-75
2022/02/23 11:00:23;;;;;;;14.88;3.53;;;;;;;;;;5077926;28;20457;-75
2022/02/23 11:02:49;;;;;;;13.93;3.60;;;;;;;;;;5070920;28;20052;-75
2022/02/23 11:05:17;;;;;;;17.17;3.78;;;;;;;;;;5089334;28;21623;-75
2022/02/23 11:07:44;;;;;;;11.52;3.17;;;;;;;;;;5089546;28;20035;-75
2022/02/23 11:10:13;;;;;;;14.02;3.45;;;;;;;;;;5071397;28;20467;-74
2022/02/23 11:12:44;;;;;;;18.80;3.80;;;;;;;;;;5089138;28;20028;-76
2022/02/23 11:15:10;;;;;;;15.48;3.83;;;;;;;;;;5089319;28;20107;-76
2022/02/23 11:17:38;;;;;;;15.60;3.67;;;;;;;;;;5088682;28;20107;-75
2022/02/23 11:20:05;;;;;;;13.82;3.38;;;;;;;;;;5089017;28;20032;-73
2022/02/23 11:22:31;;;;;;;12.55;3.35;;;;;;;;;;5088847;28;20024;-74
2022/02/23 11:24:57;;;;;;;10.77;3.05;;;;;;;;;;5089064;28;20025;-74
2022/02/23 11:27:25;;;;;;;13.35;3.17;;;;;;;;;;5088878;28;20020;-75
2022/02/23 11:30:05;;;;;;;11.80;2.78;;;;;;;;;;5081866;28;20058;-76
2022/02/23 11:32:41;;;;;;;11.88;3.15;;;;;;;;;;5057305;28;20368;-76
2022/02/23 11:35:07;;;;;;;12.57;2.88;;;;;;;;;;5075244;28;20384;-75
2022/02/23 11:37:34;;;;;;;10.50;2.88;;;;;;;;;;5075148;28;20471;-75
2022/02/23 11:40:01;;;;;;;15.82;3.60;;;;;;;;;;5075039;28;20429;-74
2022/02/23 11:42:27;;;;;;;10.90;3.03;;;;;;;;;;5057096;28;20012;-76
2022/02/23 11:45:06;;;;;;;10.25;2.97;;;;;;;;;;5074814;28;20025;-74
2022/02/23 11:47:31;;;;;;;11.48;2.80;;;;;;;;;;5075198;28;20030;-74
2022/02/23 11:50:08;;;;;;;17.27;3.10;;;;;;;;;;5075053;28;20028;-73
2022/02/23 11:52:42;;;;;;;9.77;2.80;;;;;;;;;;5073398;28;20028;-75
2022/02/23 11:55:12;;;;;;;15.05;2.95;;;;;;;;;;5075049;28;20020;-74
2022/02/23 11:57:38;;;;;;;14.75;2.55;;;;;;;;;;5056642;28;20020;-73
2022/02/23 12:00:07;;;;;;;10.18;2.58;;;;;;;;;;5070226;28;20506;-72
2022/02/23 12:02:33;;;;;;;11.85;2.50;;;;;;;;;;5074562;28;20020;-73
2022/02/23 12:04:59;;;;;;;10.90;2.75;;;;;;;;;;5066338;28;20032;-74
2022/02/23 12:07:26;;;;;;;11.07;2.80;;;;;;;;;;5067193;28;20031;-72
2022/02/23 12:09:52;;;;;;;9.48;2.28;;;;;;;;;;5073676;28;20032;-72
2022/02/23 12:12:37;;;;;;;12.48;2.53;;;;;;;;;;5074105;28;20032;-72
2022/02/23 12:15:29;;;;;;;14.18;2.97;;;;;;;;;;5074900;28;20082;-72
2022/02/23 12:18:08;;;;;;;14.65;2.83;;;;;;;;;;5069800;28;20048;-74
2022/02/23 12:20:47;;;;;;;11.20;2.45;;;;;;;;;;5073663;28;20666;-74
2022/02/23 12:23:19;;;;;;;7.90;2.22;;;;;;;;;;5074171;28;20111;-73
2022/02/23 12:25:58;;;;;;;9.70;2.28;;;;;;;;;;5074117;28;20032;-74
2022/02/23 12:28:25;;;;;;;17.85;3.15;;;;;;;;;;5074480;28;20013;-75
2022/02/23 12:31:00;;;;;;;21.58;3.38;;;;;;;;;;5074247;28;20750;-75
2022/02/23 12:33:27;;;;;;;19.33;2.50;;;;;;;;;;5085593;28;20055;-72
2022/02/23 12:35:54;;;;;;;12.70;2.65;;;;;;;;;;5094096;28;20051;-74
2022/02/23 12:38:25;;;;;;;14.13;2.50;;;;;;;;;;5094552;28;20040;-74
2022/02/23 12:40:52;;;;;;;13.98;2.97;;;;;;;;;;5093740;28;20074;-75
2022/02/23 12:43:18;;;;;;;15.32;2.90;;;;;;;;;;5093944;28;20031;-74
2022/02/23 12:45:54;;;;;;;23.55;2.58;;;;;;;;;;5094519;28;20113;-74
2022/02/23 12:48:25;;;;;;;9.57;2.60;;;;;;;;;;5076310;28;20028;-74
2022/02/23 12:50:58;;;;;;;11.32;3.03;;;;;;;;;;5094149;28;20104;-73
2022/02/23 12:53:30;;;;;;;17.35;2.65;;;;;;;;;;5094557;28;20028;-73
2022/02/23 12:55:57;;;;;;;14.05;3.38;;;;;;;;;;5094896;28;20024;-73
2022/02/23 12:58:32;;;;;;;13.07;2.90;;;;;;;;;;5094175;28;20470;-72
2022/02/23 13:00:58;;;;;;;15.90;3.05;;;;;;;;;;5066087;28;20029;-73
2022/02/23 13:03:24;;;;;;;17.23;2.95;;;;;;;;;;5056131;28;20471;-74
2022/02/23 13:05:55;;;;;;;10.25;2.97;;;;;;;;;;5073807;28;20463;-73
2022/02/23 13:08:21;;;;;;;15.98;3.22;;;;;;;;;;5073673;28;20086;-75
2022/02/23 13:10:57;;;;;;;17.85;3.22;;;;;;;;;;5055875;28;20416;-75
2022/02/23 13:13:39;;;;;;;42.60;4.22;;;;;;;;;;5073937;28;20016;-74
2022/02/23 13:16:06;;;;;;;12.80;2.92;;;;;;;;;;5074453;28;20047;-75
2022/02/23 13:18:32;;;;;;;16.15;3.47;;;;;;;;;;5073379;28;20496;-74
2022/02/23 13:21:11;;;;;;;14.57;3.65;;;;;;;;;;5073522;28;20029;-73
2022/02/23 13:24:10;;;;;;;14.95;3.05;;;;;;;;;;5073399;28;20082;-74
2022/02/23 13:26:41;;;;;;;14.77;3.10;;;;;;;;;;5029431;28;20036;-73
2022/02/23 13:29:08;;;;;;;14.75;3.53;;;;;;;;;;5073760;28;20025;-74
2022/02/23 13:31:45;;;;;;;14.18;3.05;;;;;;;;;;5073317;28;20016;-75
2022/02/23 13:34:15;;;;;;;12.07;2.95;;;;;;;;;;5073646;28;20100;-73
2022/02/23 13:36:42;;;;;;;20.42;3.33;;;;;;;;;;5073464;28;20063;-73
2022/02/23 13:39:22;;;;;;;13.95;3.03;;;;;;;;;;5073082;28;20109;-73
2022/02/23 13:42:06;;;;;;;15.50;3.47;;;;;;;;;;5073572;28;20020;-74
2022/02/23 13:44:33;;;;;;;14.77;3.13;;;;;;;;;;5073254;28;20020;-74
2022/02/23 13:47:01;;;;;;;16.05;3.33;;;;;;;;;;5073280;28;20024;-73
2022/02/23 13:49:27;;;;;;;9.88;2.80;;;;;;;;;;5073135;28;20032;-73
2022/02/23 13:51:55;;;;;;;17.38;3.25;;;;;;;;;;5054645;28;20056;-74
2022/02/23 13:54:21;;;;;;;15.98;3.33;;;;;;;;;;5073036;28;20029;-75
2022/02/23 13:56:49;;;;;;;13.02;2.70;;;;;;;;;;5055050;28;20027;-74
2022/02/23 13:59:16;;;;;;;13.75;3.03;;;;;;;;;;5072975;28;20028;-75
2022/02/23 14:01:58;;;;;;;11.88;2.92;;;;;;;;;;5072705;28;20107;-75
2022/02/23 14:04:34;;;;;;;7.97;2.65;;;;;;;;;;5069136;28;20493;-74
2022/02/23 14:07:00;;;;;;;15.63;3.22;;;;;;;;;;5065781;28;20100;-74
2022/02/23 14:09:26;;;;;;;18.92;2.85;;;;;;;;;;5072842;28;20103;-74
2022/02/23 14:11:57;;;;;;;15.43;2.55;;;;;;;;;;5072850;28;20074;-72
2022/02/23 14:14:25;;;;;;;10.80;2.80;;;;;;;;;;5072339;28;20020;-73
2022/02/23 14:16:51;;;;;;;14.95;2.75;;;;;;;;;;5072542;28;20021;-71
2022/02/23 14:19:25;;;;;;;14.02;2.70;;;;;;;;;;5072187;28;20055;-74
2022/02/23 14:21:56;;;;;;;11.25;2.92;;;;;;;;;;5072512;28;20099;-74
2022/02/23 14:24:25;;;;;;;11.45;2.67;;;;;;;;;;5072537;28;20104;-74
2022/02/23 14:26:56;;;;;;;13.05;3.05;;;;;;;;;;5067162;28;20020;-73
2022/02/23 14:29:30;;;;;;;10.48;2.42;;;;;;;;;;5072770;28;20035;-73
2022/02/23 14:31:57;;;;;;;25.05;2.90;;;;;;;;;;5072765;28;20356;-74
2022/02/23 14:34:27;;;;;;;17.25;2.53;;;;;;;;;;5081492;28;20013;-74
2022/02/23 14:36:54;;;;;;;13.23;3.13;;;;;;;;;;5072672;28;20107;-74
2022/02/23 14:39:21;;;;;;;13.70;3.00;;;;;;;;;;5072394;28;20036;-74
2022/02/23 14:41:48;;;;;;;8.60;2.22;;;;;;;;;;5072069;28;20482;-73
2022/02/23 14:44:14;;;;;;;11.77;2.63;;;;;;;;;;5072389;28;20040;-73
2022/02/23 14:46:40;;;;;;;12.65;2.65;;;;;;;;;;5072228;28;20029;-73
2022/02/23 14:49:06;;;;;;;14.35;2.25;;;;;;;;;;5072576;28;20108;-72
2022/02/23 14:51:33;;;;;;;8.07;2.42;;;;;;;;;;5071977;28;20029;-73